Time;durP1;ratioP1;P1;durP2;ratioP2;P2;SDS_P1;SDS_P2;PMS_P1;PMS_P2;Temp;Humidity;BMP_temperature;BMP_pressure;BME280_temperature;BME280_humidity;BME280_pressure;Samples;Min_cycle;Max_cycle;Signal;HPM_P1;HPM_P2
2023/08/05 00:01:10;;;;;;;;;;;14.00;99.90;;;;;;5056146;28;20034;-86
2023/08/05 00:03:36;;;;;;;;;;;14.00;99.90;;;;;;5039188;28;19905;-84
2023/08/05 00:06:01;;;;;;;;;;;13.90;99.90;;;;;;5039228;28;20403;-85
2023/08/05 00:08:27;;;;;;;;;;;13.90;99.90;;;;;;5039533;28;20283;-85
2023/08/05 00:14:21;;;;;;;;;;;13.90;99.90;;;;;;5051608;28;20461;-86
2023/08/05 00:16:47;;;;;;;;;;;13.80;99.90;;;;;;5038745;28;19928;-85
2023/08/05 00:21:54;;;;;;;;;;;13.80;99.90;;;;;;5055469;28;19917;-85
2023/08/05 00:24:19;;;;;;;;;;;13.80;99.90;;;;;;5055549;28;20257;-85
2023/08/05 00:26:45;;;;;;;;;;;13.80;99.90;;;;;;5053497;28;20320;-85
2023/08/05 00:29:11;;;;;;;;;;;13.80;99.90;;;;;;5038601;28;19913;-85
2023/08/05 00:31:36;;;;;;;;;;;13.80;99.90;;;;;;5038131;28;19956;-86
2023/08/05 00:34:02;;;;;;;;;;;13.90;99.90;;;;;;5038965;28;20283;-87
2023/08/05 00:36:27;;;;;;;;;;;13.90;99.90;;;;;;5039078;28;19966;-84
2023/08/05 00:38:53;;;;;;;;;;;13.90;99.90;;;;;;5088881;28;19909;-88
2023/08/05 00:41:19;;;;;;;;;;;14.00;99.90;;;;;;5055450;28;19995;-85
2023/08/05 00:43:44;;;;;;;;;;;14.00;99.90;;;;;;5056397;28;20008;-87
2023/08/05 00:46:10;;;;;;;;;;;14.00;99.90;;;;;;5055086;28;19913;-85
2023/08/05 00:48:37;;;;;;;;;;;14.10;99.90;;;;;;5055181;28;19909;-87
2023/08/05 00:51:05;;;;;;;;;;;14.10;99.90;;;;;;5040315;28;19909;-85
2023/08/05 00:53:31;;;;;;;;;;;14.10;99.90;;;;;;5056360;28;19940;-85
2023/08/05 00:55:57;;;;;;;;;;;14.10;99.90;;;;;;5088737;28;19908;-88
2023/08/05 00:58:23;;;;;;;;;;;14.20;99.90;;;;;;5038530;28;19960;-87
2023/08/05 01:00:49;;;;;;;;;;;14.10;99.90;;;;;;5055352;28;20324;-87
2023/08/05 01:03:15;;;;;;;;;;;14.10;99.90;;;;;;5055294;28;19944;-87
2023/08/05 01:05:41;;;;;;;;;;;14.10;99.90;;;;;;5038789;28;20054;-88
2023/08/05 01:08:07;;;;;;;;;;;14.20;99.90;;;;;;5033564;28;19962;-85
2023/08/05 01:10:33;;;;;;;;;;;14.10;99.90;;;;;;5038198;28;19908;-85
2023/08/05 01:12:59;;;;;;;;;;;14.10;99.90;;;;;;5038262;28;20011;-84
2023/08/05 01:15:24;;;;;;;;;;;14.10;99.90;;;;;;5054895;28;19920;-85
2023/08/05 01:17:52;;;;;;;;;;;14.10;99.90;;;;;;5038036;28;19915;-87
2023/08/05 01:20:20;;;;;;;;;;;14.00;99.90;;;;;;5038542;28;20347;-86
2023/08/05 01:22:49;;;;;;;;;;;14.00;99.90;;;;;;5037885;28;20394;-85
2023/08/05 01:25:27;;;;;;;;;;;13.90;99.90;;;;;;5037842;28;20030;-85
2023/08/05 01:27:53;;;;;;;;;;;13.80;99.90;;;;;;5085877;28;19958;-86
2023/08/05 01:30:20;;;;;;;;;;;13.60;99.90;;;;;;5054519;28;19908;-86
2023/08/05 01:32:48;;;;;;;;;;;13.60;99.90;;;;;;5037985;28;20356;-86
2023/08/05 01:35:13;;;;;;;;;;;13.50;99.90;;;;;;5054590;28;19909;-85
2023/08/05 01:37:39;;;;;;;;;;;13.50;99.90;;;;;;5054473;28;20409;-86
2023/08/05 01:40:05;;;;;;;;;;;13.40;99.90;;;;;;5054208;28;20347;-85
2023/08/05 01:42:30;;;;;;;;;;;13.30;99.90;;;;;;5054047;28;19916;-86
2023/08/05 01:44:56;;;;;;;;;;;13.30;99.90;;;;;;5053929;28;20360;-85
2023/08/05 01:47:22;;;;;;;;;;;13.20;99.90;;;;;;5053984;28;20380;-85
2023/08/05 01:49:47;;;;;;;;;;;13.10;99.90;;;;;;5087290;28;20439;-86
2023/08/05 01:52:13;;;;;;;;;;;13.10;99.90;;;;;;5037086;28;19909;-86
2023/08/05 01:54:39;;;;;;;;;;;13.00;99.90;;;;;;5054428;28;19909;-86
2023/08/05 01:57:06;;;;;;;;;;;13.00;99.90;;;;;;5053879;28;19916;-85
2023/08/05 01:59:32;;;;;;;;;;;13.00;99.90;;;;;;5053692;28;20356;-85
2023/08/05 02:01:57;;;;;;;;;;;13.00;99.90;;;;;;5037227;28;20283;-85
2023/08/05 02:04:23;;;;;;;;;;;12.90;99.90;;;;;;5053864;28;20326;-86
2023/08/05 02:06:49;;;;;;;;;;;12.90;99.90;;;;;;5037032;28;19912;-86
2023/08/05 02:09:14;;;;;;;;;;;12.80;99.90;;;;;;5029741;28;20320;-86
2023/08/05 02:11:40;;;;;;;;;;;12.80;99.90;;;;;;5037367;28;20272;-85
2023/08/05 02:14:05;;;;;;;;;;;12.80;99.90;;;;;;5053300;28;19905;-86
2023/08/05 02:16:34;;;;;;;;;;;12.70;99.90;;;;;;5037318;28;19952;-86
2023/08/05 02:19:00;;;;;;;;;;;12.70;99.90;;;;;;5053655;28;20277;-86
2023/08/05 02:21:25;;;;;;;;;;;12.80;99.90;;;;;;5037063;28;19908;-85
2023/08/05 02:23:52;;;;;;;;;;;12.80;99.90;;;;;;5053280;28;19916;-85
2023/08/05 02:26:19;;;;;;;;;;;12.90;99.90;;;;;;5036798;28;19908;-85
2023/08/05 02:28:45;;;;;;;;;;;13.00;99.90;;;;;;5053393;28;19915;-85
2023/08/05 02:31:11;;;;;;;;;;;13.00;99.90;;;;;;5053098;28;19909;-86
2023/08/05 02:33:36;;;;;;;;;;;13.00;99.90;;;;;;5086748;28;19974;-86
2023/08/05 02:36:03;;;;;;;;;;;13.00;99.90;;;;;;5036733;28;19959;-86
2023/08/05 02:38:28;;;;;;;;;;;13.00;99.90;;;;;;5053039;28;19909;-86
2023/08/05 02:40:55;;;;;;;;;;;12.90;99.90;;;;;;5052848;28;20268;-86
2023/08/05 02:43:20;;;;;;;;;;;12.90;99.90;;;;;;5052872;28;19908;-86
2023/08/05 02:45:55;;;;;;;;;;;12.90;99.90;;;;;;5036340;28;19908;-86
2023/08/05 02:48:21;;;;;;;;;;;12.90;99.90;;;;;;5069462;28;19909;-86
2023/08/05 02:50:47;;;;;;;;;;;12.90;99.90;;;;;;5052843;28;19969;-86
2023/08/05 02:53:13;;;;;;;;;;;12.90;99.90;;;;;;5052886;28;20756;-87
2023/08/05 02:55:38;;;;;;;;;;;13.00;99.90;;;;;;5052617;28;19955;-86
2023/08/05 02:58:04;;;;;;;;;;;13.00;99.90;;;;;;5052838;28;19993;-86
2023/08/05 03:00:30;;;;;;;;;;;13.00;99.90;;;;;;5036207;28;20351;-87
2023/08/05 03:02:55;;;;;;;;;;;13.00;99.90;;;;;;5052823;28;19915;-86
2023/08/05 03:05:21;;;;;;;;;;;13.00;99.90;;;;;;5052891;28;19908;-87
2023/08/05 03:07:47;;;;;;;;;;;13.00;99.90;;;;;;5052915;28;19912;-87
2023/08/05 03:10:12;;;;;;;;;;;13.00;99.90;;;;;;5036134;28;19920;-86
2023/08/05 03:12:39;;;;;;;;;;;13.00;99.90;;;;;;5052765;28;20351;-86
2023/08/05 03:15:05;;;;;;;;;;;12.90;99.90;;;;;;5052607;28;19915;-87
2023/08/05 03:17:31;;;;;;;;;;;12.90;99.90;;;;;;5052471;28;20256;-85
2023/08/05 03:19:57;;;;;;;;;;;12.80;99.90;;;;;;5035941;28;19919;-86
2023/08/05 03:22:24;;;;;;;;;;;12.70;99.90;;;;;;5035886;28;19916;-86
2023/08/05 03:24:50;;;;;;;;;;;12.70;99.90;;;;;;5035895;28;20371;-86
2023/08/05 03:27:16;;;;;;;;;;;12.70;99.90;;;;;;5052392;28;19909;-87
2023/08/05 03:29:44;;;;;;;;;;;12.60;99.90;;;;;;5036107;28;19954;-86
2023/08/05 03:32:11;;;;;;;;;;;12.60;99.90;;;;;;5052406;28;19908;-86
2023/08/05 03:34:36;;;;;;;;;;;12.50;99.90;;;;;;5035813;28;20390;-86
2023/08/05 03:37:03;;;;;;;;;;;12.50;99.90;;;;;;5052304;28;19908;-86
2023/08/05 03:39:29;;;;;;;;;;;12.50;99.90;;;;;;5036871;28;19992;-86
2023/08/05 03:41:54;;;;;;;;;;;12.50;99.90;;;;;;5039129;28;19908;-86
2023/08/05 03:44:32;;;;;;;;;;;12.50;99.90;;;;;;5054858;28;19909;-86
2023/08/05 03:46:58;;;;;;;;;;;12.50;99.90;;;;;;5063482;28;19952;-86
2023/08/05 03:49:24;;;;;;;;;;;12.50;99.90;;;;;;5036829;28;19928;-86
2023/08/05 03:51:50;;;;;;;;;;;12.50;99.90;;;;;;5053013;28;19909;-86
2023/08/05 03:54:15;;;;;;;;;;;12.50;99.90;;;;;;5036168;28;19916;-87
2023/08/05 03:56:41;;;;;;;;;;;12.50;99.90;;;;;;5053086;28;20322;-87
2023/08/05 03:59:06;;;;;;;;;;;12.50;99.90;;;;;;5053446;28;19916;-86
2023/08/05 04:01:34;;;;;;;;;;;12.40;99.90;;;;;;5035808;28;19909;-86
2023/08/05 04:04:00;;;;;;;;;;;12.50;99.90;;;;;;5030445;28;19924;-86
2023/08/05 04:06:26;;;;;;;;;;;12.50;99.90;;;;;;5039108;28;20360;-86
2023/08/05 04:08:54;;;;;;;;;;;12.50;99.90;;;;;;5039305;28;19915;-86
2023/08/05 04:11:20;;;;;;;;;;;12.50;99.90;;;;;;5055826;28;20381;-86
2023/08/05 04:13:45;;;;;;;;;;;12.50;99.90;;;;;;5039038;28;19954;-86
2023/08/05 04:16:11;;;;;;;;;;;12.50;99.90;;;;;;5055292;28;19913;-87
2023/08/05 04:18:38;;;;;;;;;;;12.60;99.90;;;;;;5038652;28;19948;-86
2023/08/05 04:21:04;;;;;;;;;;;12.50;99.90;;;;;;5055416;28;19936;-86
2023/08/05 04:23:32;;;;;;;;;;;12.50;99.90;;;;;;5055381;28;20394;-86
2023/08/05 04:25:59;;;;;;;;;;;12.40;99.90;;;;;;5055351;28;19912;-86
2023/08/05 04:28:25;;;;;;;;;;;12.30;99.90;;;;;;5038697;28;19909;-87
2023/08/05 04:30:52;;;;;;;;;;;12.30;99.90;;;;;;5055152;28;20260;-86
2023/08/05 04:33:17;;;;;;;;;;;12.30;99.90;;;;;;5054833;28;19913;-86
2023/08/05 04:35:46;;;;;;;;;;;12.30;99.90;;;;;;5038437;28;19915;-87
2023/08/05 04:38:12;;;;;;;;;;;12.40;99.90;;;;;;5055105;28;19916;-86
2023/08/05 04:40:37;;;;;;;;;;;12.40;99.90;;;;;;5038458;28;19909;-86
2023/08/05 04:43:03;;;;;;;;;;;12.40;99.90;;;;;;5038175;28;20657;-87
2023/08/05 04:45:29;;;;;;;;;;;12.40;99.90;;;;;;5055118;28;19958;-86
2023/08/05 04:47:54;;;;;;;;;;;12.50;99.90;;;;;;5038364;28;19913;-87
2023/08/05 04:50:20;;;;;;;;;;;12.50;99.90;;;;;;5088629;28;19928;-86
2023/08/05 04:52:46;;;;;;;;;;;12.60;99.90;;;;;;5055004;28;19908;-87
2023/08/05 04:55:12;;;;;;;;;;;12.60;99.90;;;;;;5088251;28;20356;-86
2023/08/05 04:57:37;;;;;;;;;;;12.70;99.90;;;;;;5038485;28;19912;-87
2023/08/05 05:00:03;;;;;;;;;;;12.80;99.90;;;;;;5056018;28;19916;-86
2023/08/05 05:02:29;;;;;;;;;;;12.80;99.90;;;;;;5055705;28;19999;-87
2023/08/05 05:04:55;;;;;;;;;;;12.90;99.90;;;;;;5038360;28;19996;-87
2023/08/05 05:07:20;;;;;;;;;;;13.00;99.90;;;;;;5037771;28;20356;-86
2023/08/05 05:10:01;;;;;;;;;;;13.00;99.90;;;;;;5054548;28;19915;-86
2023/08/05 05:12:27;;;;;;;;;;;13.10;99.90;;;;;;5066972;28;19999;-86
2023/08/05 05:14:52;;;;;;;;;;;13.10;99.90;;;;;;5037932;28;20025;-87
2023/08/05 05:17:18;;;;;;;;;;;13.20;99.90;;;;;;5053967;28;20051;-87
2023/08/05 05:19:44;;;;;;;;;;;13.20;99.90;;;;;;5037069;28;20117;-87
2023/08/05 05:22:10;;;;;;;;;;;13.30;99.90;;;;;;5087538;28;19909;-87
2023/08/05 05:24:35;;;;;;;;;;;13.40;99.90;;;;;;5037630;28;19909;-87
2023/08/05 05:27:01;;;;;;;;;;;13.50;99.90;;;;;;5047913;28;19913;-86
2023/08/05 05:29:30;;;;;;;;;;;13.50;99.90;;;;;;5037015;28;20290;-86
2023/08/05 05:31:55;;;;;;;;;;;13.60;99.90;;;;;;5066074;28;20371;-87
2023/08/05 05:34:21;;;;;;;;;;;13.70;99.90;;;;;;5054102;28;19908;-87
2023/08/05 05:36:47;;;;;;;;;;;13.70;99.90;;;;;;5054597;28;20360;-87
2023/08/05 05:39:12;;;;;;;;;;;13.80;99.90;;;;;;5053938;28;19913;-87
2023/08/05 05:41:38;;;;;;;;;;;13.90;99.90;;;;;;5054300;28;19909;-86
2023/08/05 05:47:32;;;;;;;;;;;14.00;99.90;;;;;;5055028;28;19920;-87
2023/08/05 05:49:58;;;;;;;;;;;14.00;99.90;;;;;;5053235;28;19917;-86
2023/08/05 05:52:23;;;;;;;;;;;14.00;99.90;;;;;;5053152;28;19912;-86
2023/08/05 05:54:49;;;;;;;;;;;14.00;99.90;;;;;;5053336;28;19916;-86
2023/08/05 05:57:14;;;;;;;;;;;14.00;99.90;;;;;;5036809;28;20000;-86
2023/08/05 05:59:43;;;;;;;;;;;14.00;99.90;;;;;;5036815;28;19913;-87
2023/08/05 06:02:09;;;;;;;;;;;14.00;99.90;;;;;;5036825;28;19913;-86
2023/08/05 06:04:35;;;;;;;;;;;14.10;99.90;;;;;;5036833;28;20382;-87
2023/08/05 06:07:02;;;;;;;;;;;14.20;99.90;;;;;;5036670;28;20043;-87
2023/08/05 06:09:29;;;;;;;;;;;14.30;99.90;;;;;;5053305;28;19920;-87
2023/08/05 06:11:55;;;;;;;;;;;14.40;99.90;;;;;;5036812;28;20307;-86
2023/08/05 06:14:21;;;;;;;;;;;14.40;99.90;;;;;;5053512;28;19905;-86
2023/08/05 06:16:46;;;;;;;;;;;14.60;99.90;;;;;;5036802;28;19909;-87
2023/08/05 06:19:12;;;;;;;;;;;14.80;99.90;;;;;;5053057;28;19913;-87
2023/08/05 06:21:37;;;;;;;;;;;15.00;99.90;;;;;;5054551;28;20003;-87
2023/08/05 06:24:03;;;;;;;;;;;15.00;99.90;;;;;;5086912;28;19909;-87
2023/08/05 06:26:29;;;;;;;;;;;15.00;99.90;;;;;;5035909;28;19927;-86
2023/08/05 06:28:55;;;;;;;;;;;14.80;99.90;;;;;;5052830;28;19913;-87
2023/08/05 06:31:20;;;;;;;;;;;14.70;99.90;;;;;;5036198;28;19904;-87
2023/08/05 06:33:46;;;;;;;;;;;14.70;99.90;;;;;;5036134;28;19909;-86
2023/08/05 06:36:11;;;;;;;;;;;14.50;99.90;;;;;;5030309;28;19995;-87
2023/08/05 06:38:37;;;;;;;;;;;14.40;99.90;;;;;;5048194;28;19916;-86
2023/08/05 06:41:03;;;;;;;;;;;14.40;99.90;;;;;;5051731;28;19955;-86
2023/08/05 06:43:28;;;;;;;;;;;14.40;99.90;;;;;;5052477;28;20440;-87
2023/08/05 06:45:54;;;;;;;;;;;14.30;99.90;;;;;;5050763;28;19954;-86
2023/08/05 06:48:20;;;;;;;;;;;14.40;99.90;;;;;;5034187;28;20003;-86
2023/08/05 06:50:45;;;;;;;;;;;14.40;99.90;;;;;;5078760;28;19904;-86
2023/08/05 06:53:11;;;;;;;;;;;14.40;99.90;;;;;;5047319;28;19912;-86
2023/08/05 06:55:37;;;;;;;;;;;14.50;99.90;;;;;;5035281;28;20363;-87
2023/08/05 06:58:03;;;;;;;;;;;14.50;99.90;;;;;;5035302;28;19948;-87
2023/08/05 07:00:28;;;;;;;;;;;14.60;99.90;;;;;;5062786;28;19909;-87
2023/08/05 07:02:54;;;;;;;;;;;14.60;99.90;;;;;;5034759;28;19958;-87
2023/08/05 07:05:20;;;;;;;;;;;14.70;99.90;;;;;;5049055;28;20003;-86
2023/08/05 07:07:46;;;;;;;;;;;14.80;99.90;;;;;;5035753;28;20390;-87
2023/08/05 07:10:12;;;;;;;;;;;14.90;99.90;;;;;;5035493;28;19959;-85
2023/08/05 07:12:38;;;;;;;;;;;14.90;99.90;;;;;;5051314;28;19909;-86
2023/08/05 07:15:04;;;;;;;;;;;15.00;99.90;;;;;;5035778;28;19909;-87
2023/08/05 07:17:30;;;;;;;;;;;15.10;99.90;;;;;;5032315;28;20286;-86
2023/08/05 07:19:55;;;;;;;;;;;15.10;99.90;;;;;;5044796;28;19913;-86
2023/08/05 07:22:21;;;;;;;;;;;15.20;99.90;;;;;;5046412;28;19959;-87
2023/08/05 07:24:47;;;;;;;;;;;15.30;99.90;;;;;;5044568;28;19909;-87
2023/08/05 07:27:13;;;;;;;;;;;15.30;99.90;;;;;;5052218;28;19919;-87
2023/08/05 07:29:42;;;;;;;;;;;15.40;99.90;;;;;;5051064;28;19909;-87
2023/08/05 07:32:07;;;;;;;;;;;15.50;99.90;;;;;;5051505;28;20501;-87
2023/08/05 07:34:33;;;;;;;;;;;15.50;99.90;;;;;;5048983;28;19909;-87
2023/08/05 07:36:59;;;;;;;;;;;15.60;99.90;;;;;;5046008;28;19909;-86
2023/08/05 07:39:28;;;;;;;;;;;15.70;99.90;;;;;;5034361;28;19909;-86
2023/08/05 07:41:53;;;;;;;;;;;15.70;99.90;;;;;;5040479;28;19964;-86
2023/08/05 07:44:19;;;;;;;;;;;15.80;99.90;;;;;;5051339;28;20015;-86
2023/08/05 07:46:47;;;;;;;;;;;16.00;99.90;;;;;;5037905;28;20397;-87
2023/08/05 07:49:13;;;;;;;;;;;16.10;99.90;;;;;;5053382;28;19923;-87
2023/08/05 07:51:39;;;;;;;;;;;16.20;99.90;;;;;;5036556;28;19909;-86
2023/08/05 07:54:05;;;;;;;;;;;16.20;99.90;;;;;;5082431;28;19909;-86
2023/08/05 07:56:33;;;;;;;;;;;16.20;99.90;;;;;;5067126;28;19915;-86
2023/08/05 07:58:59;;;;;;;;;;;16.20;99.90;;;;;;5048705;28;19909;-87
2023/08/05 08:01:26;;;;;;;;;;;16.40;99.90;;;;;;5038657;28;20018;-87
2023/08/05 08:03:56;;;;;;;;;;;16.50;99.90;;;;;;5038515;28;20275;-87
2023/08/05 08:06:22;;;;;;;;;;;16.50;99.90;;;;;;5035732;28;19916;-87
2023/08/05 08:08:47;;;;;;;;;;;16.60;99.90;;;;;;5036091;28;19916;-87
2023/08/05 08:11:13;;;;;;;;;;;16.60;99.90;;;;;;5051199;28;19940;-87
2023/08/05 08:13:39;;;;;;;;;;;16.80;99.90;;;;;;5038084;28;19943;-88
2023/08/05 08:16:05;;;;;;;;;;;16.80;99.90;;;;;;5038252;28;19911;-87
2023/08/05 08:18:31;;;;;;;;;;;16.90;99.90;;;;;;5052086;28;19999;-86
2023/08/05 08:20:56;;;;;;;;;;;17.10;99.90;;;;;;5029763;28;19909;-86
2023/08/05 08:23:22;;;;;;;;;;;17.50;99.90;;;;;;5051419;28;19954;-86
2023/08/05 08:25:48;;;;;;;;;;;18.60;99.90;;;;;;5037532;28;19920;-86
2023/08/05 08:28:13;;;;;;;;;;;20.40;99.90;;;;;;5051956;28;20442;-87
2023/08/05 08:30:39;;;;;;;;;;;21.10;99.90;;;;;;5038077;28;19909;-87
2023/08/05 08:33:05;;;;;;;;;;;21.50;99.90;;;;;;5037636;28;19990;-87
2023/08/05 08:35:30;;;;;;;;;;;22.90;99.90;;;;;;5038627;28;20344;-87
2023/08/05 08:37:56;;;;;;;;;;;24.10;99.90;;;;;;5056368;28;19919;-87
2023/08/05 08:40:22;;;;;;;;;;;24.80;99.90;;;;;;5073478;28;20268;-88
2023/08/05 08:42:51;;;;;;;;;;;25.80;99.90;;;;;;5063235;28;20016;-87
2023/08/05 08:45:17;;;;;;;;;;;25.80;99.90;;;;;;5038635;28;19912;-85
2023/08/05 08:47:44;;;;;;;;;;;25.20;99.90;;;;;;5059142;28;19916;-85
2023/08/05 08:50:11;;;;;;;;;;;25.20;99.90;;;;;;5054716;28;20003;-84
2023/08/05 08:52:38;;;;;;;;;;;25.00;99.90;;;;;;5086049;28;19909;-87
2023/08/05 08:55:04;;;;;;;;;;;25.10;99.90;;;;;;5038346;28;19909;-88
2023/08/05 08:57:30;;;;;;;;;;;25.20;99.90;;;;;;5088059;28;19909;-87
2023/08/05 08:59:55;;;;;;;;;;;25.30;99.90;;;;;;5054858;28;19996;-88
2023/08/05 09:02:23;;;;;;;;;;;25.30;99.30;;;;;;5054583;28;19909;-88
2023/08/05 09:04:53;;;;;;;;;;;25.20;99.60;;;;;;5052457;28;19908;-87
2023/08/05 09:07:19;;;;;;;;;;;25.40;98.70;;;;;;5066883;28;19912;-85
2023/08/05 09:09:48;;;;;;;;;;;25.40;96.50;;;;;;5056128;28;20585;-88
2023/08/05 09:12:14;;;;;;;;;;;25.50;96.10;;;;;;5039144;28;19927;-88
2023/08/05 09:14:40;;;;;;;;;;;26.30;97.00;;;;;;5071071;28;20514;-86
2023/08/05 09:17:06;;;;;;;;;;;25.80;95.60;;;;;;5037800;28;19915;-85
2023/08/05 09:19:31;;;;;;;;;;;24.60;98.30;;;;;;5054256;28;19965;-88
2023/08/05 09:22:00;;;;;;;;;;;23.70;99.80;;;;;;5054994;28;19915;-85
2023/08/05 09:24:25;;;;;;;;;;;24.40;99.90;;;;;;5088360;28;19915;-85
2023/08/05 09:26:58;;;;;;;;;;;24.90;98.80;;;;;;5070842;28;19913;-85
2023/08/05 09:29:52;;;;;;;;;;;25.80;99.60;;;;;;5037606;28;19948;-85
2023/08/05 09:32:17;;;;;;;;;;;26.60;96.60;;;;;;5053479;28;19919;-85
2023/08/05 09:34:43;;;;;;;;;;;26.90;95.70;;;;;;5070806;28;19917;-85
2023/08/05 09:37:09;;;;;;;;;;;26.40;95.60;;;;;;5034588;28;19904;-88
2023/08/05 09:39:44;;;;;;;;;;;25.60;98.30;;;;;;5053671;28;19908;-88
2023/08/05 09:42:29;;;;;;;;;;;25.50;97.40;;;;;;5053618;28;19916;-85
2023/08/05 09:44:57;;;;;;;;;;;25.70;97.40;;;;;;5034363;28;20219;-86
2023/08/05 09:47:31;;;;;;;;;;;26.70;95.50;;;;;;5048056;28;20387;-86
2023/08/05 09:50:00;;;;;;;;;;;27.10;94.70;;;;;;5040867;28;19912;-86
2023/08/05 09:52:33;;;;;;;;;;;27.10;92.40;;;;;;5033559;28;19995;-85
2023/08/05 09:55:12;;;;;;;;;;;27.90;92.00;;;;;;5045720;28;20299;-86
2023/08/05 09:57:38;;;;;;;;;;;27.50;91.50;;;;;;5035380;28;19913;-86
2023/08/05 10:00:08;;;;;;;;;;;28.30;91.10;;;;;;5049844;28;20450;-86
2023/08/05 10:02:34;;;;;;;;;;;28.40;90.10;;;;;;5050582;28;20298;-85
2023/08/05 10:05:00;;;;;;;;;;;28.70;89.50;;;;;;5036210;28;19916;-86
2023/08/05 10:07:27;;;;;;;;;;;28.50;88.00;;;;;;5049062;28;19966;-86
2023/08/05 10:09:53;;;;;;;;;;;28.10;90.30;;;;;;5031868;28;20272;-86
2023/08/05 10:12:26;;;;;;;;;;;26.20;93.20;;;;;;5047838;28;20283;-85
2023/08/05 10:14:55;;;;;;;;;;;24.20;96.80;;;;;;5035585;28;20378;-86
2023/08/05 10:17:21;;;;;;;;;;;22.90;99.50;;;;;;5036509;28;19915;-85
2023/08/05 10:19:50;;;;;;;;;;;21.90;99.90;;;;;;5049286;28;19905;-85
2023/08/05 10:22:20;;;;;;;;;;;21.00;99.90;;;;;;5042182;28;19913;-86
2023/08/05 10:24:50;;;;;;;;;;;20.70;99.90;;;;;;5066961;28;19951;-85
2023/08/05 10:27:16;;;;;;;;;;;20.90;99.90;;;;;;5049940;28;19944;-85
2023/08/05 10:29:52;;;;;;;;;;;20.80;99.90;;;;;;5033353;28;19916;-85
2023/08/05 10:32:26;;;;;;;;;;;20.80;99.90;;;;;;5067849;28;20276;-85
2023/08/05 10:35:10;;;;;;;;;;;20.70;99.90;;;;;;5029128;28;19917;-85
2023/08/05 10:37:48;;;;;;;;;;;20.50;99.90;;;;;;5068411;28;20409;-85
2023/08/05 10:40:34;;;;;;;;;;;20.20;99.90;;;;;;5068876;28;19913;-85
2023/08/05 10:43:00;;;;;;;;;;;19.60;99.90;;;;;;5035982;28;19915;-85
2023/08/05 10:45:25;;;;;;;;;;;19.40;99.90;;;;;;5053393;28;19904;-85
2023/08/05 10:47:52;;;;;;;;;;;19.30;99.90;;;;;;5052524;28;19913;-84
2023/08/05 10:50:18;;;;;;;;;;;19.40;99.90;;;;;;5051797;28;20386;-85
2023/08/05 10:52:44;;;;;;;;;;;20.00;99.90;;;;;;5052162;28;19995;-85
2023/08/05 10:55:11;;;;;;;;;;;20.30;99.90;;;;;;5052219;28;19948;-85
2023/08/05 10:57:39;;;;;;;;;;;20.40;99.90;;;;;;5035131;28;19909;-85
2023/08/05 11:00:07;;;;;;;;;;;20.40;99.90;;;;;;5035215;28;19909;-85
2023/08/05 11:02:32;;;;;;;;;;;20.40;99.90;;;;;;5034905;28;19913;-86
2023/08/05 11:05:08;;;;;;;;;;;20.50;99.90;;;;;;5051114;28;19962;-85
2023/08/05 11:07:37;;;;;;;;;;;20.90;99.90;;;;;;5035023;28;19947;-85
2023/08/05 11:10:06;;;;;;;;;;;21.00;99.90;;;;;;5067838;28;19909;-86
2023/08/05 11:12:32;;;;;;;;;;;21.00;99.90;;;;;;5051858;28;19970;-85
2023/08/05 11:14:58;;;;;;;;;;;21.20;99.90;;;;;;5084997;28;19913;-85
2023/08/05 11:17:24;;;;;;;;;;;21.40;99.90;;;;;;5033562;28;19936;-85
2023/08/05 11:19:53;;;;;;;;;;;21.40;99.90;;;;;;5068242;28;19913;-86
2023/08/05 11:22:23;;;;;;;;;;;21.30;99.90;;;;;;5032586;28;20650;-85
2023/08/05 11:24:54;;;;;;;;;;;21.70;99.90;;;;;;5051691;28;19909;-85
2023/08/05 11:27:20;;;;;;;;;;;21.90;99.90;;;;;;5034418;28;19966;-85
2023/08/05 11:29:45;;;;;;;;;;;22.00;99.90;;;;;;5031677;28;19916;-86
2023/08/05 11:32:11;;;;;;;;;;;22.30;99.90;;;;;;5032596;28;19913;-85
2023/08/05 11:34:36;;;;;;;;;;;22.60;99.90;;;;;;5049152;28;20272;-85
2023/08/05 11:37:02;;;;;;;;;;;22.90;99.90;;;;;;5033851;28;19908;-86
2023/08/05 11:39:28;;;;;;;;;;;23.30;99.90;;;;;;5033979;28;19916;-87
2023/08/05 11:41:54;;;;;;;;;;;23.30;99.90;;;;;;5060276;28;20007;-86
2023/08/05 11:44:20;;;;;;;;;;;22.50;99.90;;;;;;5033980;28;19992;-86
2023/08/05 11:46:46;;;;;;;;;;;21.80;99.90;;;;;;5033822;28;19945;-85
2023/08/05 11:49:32;;;;;;;;;;;21.20;99.90;;;;;;5010054;28;1119363;-86
2023/08/05 11:51:58;;;;;;;;;;;21.00;99.90;;;;;;5062459;28;19920;-87
2023/08/05 11:54:28;;;;;;;;;;;21.10;99.90;;;;;;5078080;28;19988;-86
2023/08/05 11:57:12;;;;;;;;;;;21.40;99.90;;;;;;5031522;28;19909;-86
2023/08/05 11:59:39;;;;;;;;;;;21.30;99.90;;;;;;5029199;28;19917;-87
2023/08/05 12:02:07;;;;;;;;;;;21.30;99.90;;;;;;5067995;28;20592;-87
2023/08/05 12:04:39;;;;;;;;;;;21.40;99.90;;;;;;5083557;28;19905;-85
2023/08/05 12:07:05;;;;;;;;;;;21.60;99.90;;;;;;5051452;28;19948;-86
2023/08/05 12:09:34;;;;;;;;;;;21.60;99.90;;;;;;5059226;28;19945;-86
2023/08/05 12:11:59;;;;;;;;;;;21.50;99.90;;;;;;5049683;28;19969;-85
2023/08/05 12:14:25;;;;;;;;;;;21.50;99.90;;;;;;5028640;28;20388;-86
2023/08/05 12:16:55;;;;;;;;;;;22.00;99.90;;;;;;5035044;28;20348;-86
2023/08/05 12:19:21;;;;;;;;;;;22.70;99.90;;;;;;5032810;28;19913;-86
2023/08/05 12:21:46;;;;;;;;;;;23.10;99.90;;;;;;5043720;28;19987;-86
2023/08/05 12:24:12;;;;;;;;;;;23.40;99.90;;;;;;5051323;28;20498;-87
2023/08/05 12:26:37;;;;;;;;;;;23.70;99.90;;;;;;5078588;28;19923;-86
2023/08/05 12:29:03;;;;;;;;;;;23.30;99.90;;;;;;5053945;28;19928;-86
2023/08/05 12:31:31;;;;;;;;;;;23.00;99.90;;;;;;5054513;28;20694;-86
2023/08/05 12:33:56;;;;;;;;;;;23.00;99.90;;;;;;5055021;28;19955;-86
2023/08/05 12:36:22;;;;;;;;;;;22.80;99.90;;;;;;5034328;28;20269;-87
2023/08/05 12:38:52;;;;;;;;;;;22.80;99.90;;;;;;5050816;28;20276;-86
2023/08/05 12:41:17;;;;;;;;;;;23.30;99.90;;;;;;5037877;28;19952;-86
2023/08/05 12:43:43;;;;;;;;;;;23.70;99.90;;;;;;5038475;28;19908;-87
2023/08/05 12:49:39;;;;;;;;;;;23.50;99.90;;;;;;5046415;28;19923;-86
2023/08/05 12:52:05;;;;;;;;;;;23.10;99.90;;;;;;5048218;28;19917;-87
2023/08/05 12:54:31;;;;;;;;;;;22.60;99.90;;;;;;5054374;28;19908;-87
2023/08/05 12:56:56;;;;;;;;;;;22.70;99.90;;;;;;5047742;28;20426;-86
2023/08/05 12:59:22;;;;;;;;;;;23.30;99.90;;;;;;5037652;28;20496;-87
2023/08/05 13:01:47;;;;;;;;;;;24.20;99.90;;;;;;5034359;28;19917;-88
2023/08/05 13:04:13;;;;;;;;;;;23.80;99.90;;;;;;5037617;28;20348;-87
2023/08/05 13:06:39;;;;;;;;;;;23.40;99.90;;;;;;5034468;28;19919;-88
2023/08/05 13:09:09;;;;;;;;;;;23.50;99.90;;;;;;5069222;28;19908;-87
2023/08/05 13:11:35;;;;;;;;;;;23.70;99.90;;;;;;5054182;28;19915;-87
2023/08/05 13:14:00;;;;;;;;;;;24.00;99.90;;;;;;5035717;28;19992;-87
2023/08/05 13:16:26;;;;;;;;;;;24.30;99.90;;;;;;5036426;28;19909;-87
2023/08/05 13:18:52;;;;;;;;;;;24.30;99.90;;;;;;5053281;28;19909;-87
2023/08/05 13:21:17;;;;;;;;;;;25.20;99.90;;;;;;5037621;28;19912;-87
2023/08/05 13:23:43;;;;;;;;;;;25.80;98.00;;;;;;5049401;28;19909;-87
2023/08/05 13:26:09;;;;;;;;;;;26.40;97.40;;;;;;5047478;28;19960;-87
2023/08/05 13:28:34;;;;;;;;;;;26.70;95.50;;;;;;5032370;28;19909;-87
2023/08/05 13:31:01;;;;;;;;;;;26.10;95.50;;;;;;5047844;28;20031;-87
2023/08/05 13:33:26;;;;;;;;;;;25.20;96.50;;;;;;5037410;28;19927;-86
2023/08/05 13:35:52;;;;;;;;;;;24.70;97.40;;;;;;5036833;28;19909;-87
2023/08/05 13:38:19;;;;;;;;;;;25.10;96.50;;;;;;5036131;28;19913;-87
2023/08/05 13:40:50;;;;;;;;;;;25.20;97.20;;;;;;5036923;28;20272;-87
2023/08/05 13:43:31;;;;;;;;;;;25.00;96.00;;;;;;5037534;28;19916;-87
2023/08/05 13:45:57;;;;;;;;;;;25.30;97.00;;;;;;5037507;28;19985;-87
2023/08/05 13:48:24;;;;;;;;;;;25.40;94.60;;;;;;5053933;28;19991;-87
2023/08/05 13:51:03;;;;;;;;;;;24.70;94.80;;;;;;5053722;28;19913;-86
2023/08/05 13:53:28;;;;;;;;;;;25.00;97.80;;;;;;5070632;28;19912;-86
2023/08/05 13:55:54;;;;;;;;;;;25.00;96.80;;;;;;5053585;28;20314;-86
2023/08/05 13:58:20;;;;;;;;;;;25.10;97.60;;;;;;5053746;28;20284;-87
2023/08/05 14:00:46;;;;;;;;;;;24.80;95.70;;;;;;5053701;28;19909;-86
2023/08/05 14:03:11;;;;;;;;;;;24.60;97.20;;;;;;5086681;28;19915;-87
2023/08/05 14:05:37;;;;;;;;;;;24.20;96.80;;;;;;5036454;28;20473;-87
2023/08/05 14:08:03;;;;;;;;;;;24.10;96.80;;;;;;5036237;28;19999;-86
2023/08/05 14:10:28;;;;;;;;;;;24.20;97.40;;;;;;5054521;28;19970;-87
2023/08/05 14:12:54;;;;;;;;;;;24.40;95.90;;;;;;5036411;28;19904;-87
2023/08/05 14:15:19;;;;;;;;;;;24.50;93.90;;;;;;5036372;28;19909;-87
2023/08/05 14:17:45;;;;;;;;;;;24.10;94.70;;;;;;5036595;28;20298;-88
2023/08/05 14:20:11;;;;;;;;;;;24.00;95.80;;;;;;5036464;28;19916;-87
2023/08/05 14:22:36;;;;;;;;;;;24.00;97.90;;;;;;5052475;28;19908;-87
2023/08/05 14:25:33;;;;;;;;;;;24.00;98.20;;;;;;5035584;28;19912;-87
2023/08/05 14:27:59;;;;;;;;;;;23.70;97.10;;;;;;5035376;28;19967;-87